createdAt,value
2018-01-24T00:00:37.627Z,36.70
2018-01-24T00:03:03.872Z,37.20
2018-01-24T00:05:30.830Z,35.03
2018-01-24T00:07:57.779Z,29.07
2018-01-24T00:10:23.992Z,36.40
2018-01-24T00:12:50.192Z,28.37
2018-01-24T00:15:23.448Z,27.40
2018-01-24T00:17:49.623Z,25.97
2018-01-24T00:20:16.550Z,25.53
2018-01-24T00:22:43.511Z,22.60
2018-01-24T00:25:10.448Z,25.13
2018-01-24T00:27:37.464Z,26.53
2018-01-24T00:30:03.867Z,25.37
2018-01-24T00:32:30.792Z,24.10
2018-01-24T00:34:56.993Z,20.83
2018-01-24T00:37:23.184Z,18.80
2018-01-24T00:39:49.375Z,21.47
2018-01-24T00:42:15.552Z,19.80
2018-01-24T00:44:41.737Z,18.53
2018-01-24T00:47:07.949Z,23.00
2018-01-24T00:49:34.212Z,18.70
2018-01-24T00:52:00.404Z,17.50
2018-01-24T00:54:26.692Z,18.70
2018-01-24T00:56:52.919Z,23.17
2018-01-24T00:59:19.103Z,19.63
2018-01-24T01:01:45.295Z,21.37
2018-01-24T01:04:11.491Z,22.90
2018-01-24T01:06:37.697Z,20.03
2018-01-24T01:09:04.641Z,21.23
2018-01-24T01:11:30.869Z,23.13
2018-01-24T01:13:57.834Z,25.00
2018-01-24T01:16:24.053Z,25.43
2018-01-24T01:18:50.972Z,21.77
2018-01-24T01:21:17.219Z,23.93
2018-01-24T01:23:43.406Z,25.23
2018-01-24T01:26:09.656Z,27.87
2018-01-24T01:28:35.949Z,24.23
2018-01-24T01:31:02.300Z,27.53
2018-01-24T01:33:28.482Z,22.30
2018-01-24T01:35:54.727Z,25.47
2018-01-24T01:38:21.652Z,25.17
2018-01-24T01:40:47.839Z,29.00
2018-01-24T01:43:14.079Z,27.37
2018-01-24T01:45:40.268Z,27.50
2018-01-24T01:48:06.444Z,28.83
2018-01-24T01:50:33.755Z,24.40
2018-01-24T01:52:59.943Z,29.70
2018-01-24T01:55:26.248Z,32.40
2018-01-24T01:57:53.206Z,29.60
2018-01-24T02:00:19.434Z,28.80
2018-01-24T02:02:46.351Z,32.37
2018-01-24T02:05:12.553Z,29.30
2018-01-24T02:07:38.781Z,29.97
2018-01-24T02:10:04.976Z,27.20
2018-01-24T02:12:31.941Z,35.97
2018-01-24T02:14:58.885Z,28.30
2018-01-24T02:17:25.113Z,30.30
2018-01-24T02:19:52.065Z,30.50
2018-01-24T02:22:18.254Z,29.27
2018-01-24T02:24:44.433Z,30.63
2018-01-24T02:27:11.404Z,29.70
2018-01-24T02:29:38.576Z,29.03
2018-01-24T02:32:05.672Z,27.87
2018-01-24T02:34:31.864Z,25.87
2018-01-24T02:36:58.075Z,32.10
2018-01-24T02:39:25.101Z,28.33
2018-01-24T02:41:51.255Z,27.80
2018-01-24T02:44:18.222Z,28.23
2018-01-24T02:46:44.424Z,26.53
2018-01-24T02:49:11.417Z,29.20
2018-01-24T02:51:37.625Z,27.23
2018-01-24T02:54:04.561Z,31.10
2018-01-24T02:56:30.826Z,29.03
2018-01-24T02:58:57.056Z,31.10
2018-01-24T03:01:23.969Z,31.47
2018-01-24T03:03:50.176Z,27.33
2018-01-24T03:06:16.352Z,28.30
2018-01-24T03:08:43.299Z,29.30
2018-01-24T03:11:10.283Z,30.53
2018-01-24T03:13:36.511Z,26.80
2018-01-24T03:16:03.489Z,28.27
2018-01-24T03:18:29.728Z,31.83
2018-01-24T03:20:55.936Z,29.40
2018-01-24T03:23:24.716Z,26.87
2018-01-24T03:25:51.520Z,28.00
2018-01-24T03:28:17.703Z,27.60
2018-01-24T03:30:44.904Z,23.30
2018-01-24T03:33:11.301Z,23.33
2018-01-24T03:35:37.520Z,22.80
2018-01-24T03:38:04.459Z,16.97
2018-01-24T03:40:30.668Z,18.80
2018-01-24T03:42:56.855Z,18.93
2018-01-24T03:45:23.059Z,17.50
2018-01-24T03:50:09.983Z,13.97
2018-01-24T03:52:36.195Z,16.07
2018-01-24T03:55:03.924Z,15.33
2018-01-24T03:57:30.514Z,17.30
2018-01-24T03:59:56.703Z,23.33
2018-01-24T04:02:22.912Z,15.57
2018-01-24T04:04:49.103Z,19.67
2018-01-24T04:07:16.049Z,21.43
2018-01-24T04:09:42.303Z,25.07
2018-01-24T04:12:08.503Z,28.73
2018-01-24T04:14:34.675Z,28.47
2018-01-24T04:17:00.857Z,32.77
2018-01-24T04:19:27.812Z,31.17
2018-01-24T04:21:54.740Z,30.27
2018-01-24T04:24:20.927Z,32.13
2018-01-24T04:26:47.126Z,31.70
2018-01-24T04:29:14.067Z,27.60
2018-01-24T04:31:43.860Z,34.73
2018-01-24T04:34:11.117Z,32.67
2018-01-24T04:36:37.320Z,32.03
2018-01-24T04:39:03.538Z,32.20
2018-01-24T04:41:29.777Z,31.63
2018-01-24T04:43:55.961Z,35.70
2018-01-24T04:46:22.904Z,29.20
2018-01-24T04:48:49.116Z,33.60
2018-01-24T04:51:15.314Z,28.77
2018-01-24T04:53:41.509Z,34.67
2018-01-24T04:56:08.467Z,37.30
2018-01-24T04:58:35.427Z,35.10
2018-01-24T05:01:01.646Z,30.67
2018-01-24T05:03:27.915Z,28.90
2018-01-24T05:05:54.121Z,32.70
2018-01-24T05:08:21.078Z,33.07
2018-01-24T05:10:47.293Z,32.80
2018-01-24T05:13:13.468Z,32.73
2018-01-24T05:15:40.413Z,33.00
2018-01-24T05:18:06.637Z,36.20
2018-01-24T05:20:34.816Z,33.37
2018-01-24T05:23:00.981Z,33.70
2018-01-24T05:25:27.948Z,39.83
2018-01-24T05:27:54.115Z,37.53
2018-01-24T05:30:20.287Z,39.17
2018-01-24T05:32:49.852Z,40.00
2018-01-24T05:35:16.325Z,39.03
2018-01-24T05:37:43.240Z,35.93
2018-01-24T05:40:09.424Z,41.20
2018-01-24T05:42:35.593Z,38.50
2018-01-24T05:45:01.819Z,37.70
2018-01-24T05:47:27.992Z,34.23
2018-01-24T05:49:54.175Z,38.30
2018-01-24T05:52:20.374Z,42.70
2018-01-24T05:54:46.548Z,39.23
2018-01-24T05:57:13.440Z,42.60
2018-01-24T05:59:39.596Z,42.33
2018-01-24T06:02:05.891Z,37.63
2018-01-24T06:04:32.076Z,40.70
2018-01-24T06:06:58.988Z,42.97
2018-01-24T06:09:25.917Z,35.90
2018-01-24T06:11:52.181Z,41.90
2018-01-24T06:14:18.359Z,45.17
2018-01-24T06:16:45.268Z,48.90
2018-01-24T06:19:11.460Z,39.80
2018-01-24T06:21:37.655Z,42.37
2018-01-24T06:24:03.833Z,42.53
2018-01-24T06:26:30.015Z,37.93
2018-01-24T06:28:56.163Z,46.80
2018-01-24T06:31:22.340Z,40.93
2018-01-24T06:33:48.551Z,44.47
2018-01-24T06:36:14.766Z,38.20
2018-01-24T06:38:41.732Z,45.63
2018-01-24T06:41:08.632Z,42.00
2018-01-24T06:43:35.563Z,45.13
2018-01-24T06:46:01.719Z,44.70
2018-01-24T06:48:27.871Z,46.93
2018-01-24T06:50:54.041Z,41.77
2018-01-24T06:53:20.292Z,42.13
2018-01-24T06:55:46.426Z,40.63
2018-01-24T06:58:12.611Z,41.40
2018-01-24T07:00:39.917Z,41.87
2018-01-24T07:03:06.157Z,40.80
2018-01-24T07:05:32.330Z,42.30
2018-01-24T07:07:58.510Z,39.17
2018-01-24T07:10:24.660Z,43.57
2018-01-24T07:13:03.189Z,38.60
2018-01-24T07:15:29.356Z,37.43
2018-01-24T07:17:56.261Z,39.40
2018-01-24T07:20:22.440Z,35.50
2018-01-24T07:22:48.588Z,33.80
2018-01-24T07:25:15.494Z,33.23
2018-01-24T07:27:41.671Z,40.03
2018-01-24T07:30:07.852Z,37.87
2018-01-24T07:32:34.046Z,38.50
2018-01-24T07:35:00.302Z,32.70
2018-01-24T07:37:27.267Z,38.20
2018-01-24T07:39:53.461Z,34.13
2018-01-24T07:42:20.377Z,51.67
2018-01-24T07:44:46.548Z,32.20
2018-01-24T07:47:12.744Z,37.03
2018-01-24T07:49:38.936Z,38.67
2018-01-24T07:52:05.119Z,39.40
2018-01-24T07:54:31.285Z,33.93
2018-01-24T07:56:58.199Z,34.73
2018-01-24T07:59:24.363Z,29.57
2018-01-24T08:01:51.283Z,32.10
2018-01-24T08:04:18.250Z,30.93
2018-01-24T08:06:44.448Z,32.00
2018-01-24T08:09:10.620Z,33.77
2018-01-24T08:11:37.560Z,33.10
2018-01-24T08:14:04.493Z,28.63
2018-01-24T08:16:30.644Z,34.40
2018-01-24T08:18:57.572Z,31.87
2018-01-24T08:21:23.772Z,36.50
2018-01-24T08:23:49.957Z,31.23
2018-01-24T08:26:16.115Z,29.17
2018-01-24T08:28:43.009Z,34.67
2018-01-24T08:31:09.180Z,32.13
2018-01-24T08:33:35.360Z,28.90
2018-01-24T08:36:01.632Z,32.07
2018-01-24T08:38:27.972Z,29.20
2018-01-24T08:40:54.155Z,31.20
2018-01-24T08:43:20.335Z,31.23
2018-01-24T08:45:46.495Z,32.33
2018-01-24T08:48:12.679Z,25.90
2018-01-24T08:50:38.852Z,32.10
2018-01-24T08:53:05.792Z,35.03
2018-01-24T08:55:32.057Z,30.30
2018-01-24T08:57:58.221Z,31.47
2018-01-24T09:00:24.374Z,30.00
2018-01-24T09:02:50.551Z,31.83
2018-01-24T09:05:17.154Z,27.80
2018-01-24T09:07:43.356Z,29.00
2018-01-24T09:10:09.552Z,25.20
2018-01-24T09:12:37.176Z,23.73
2018-01-24T09:15:04.052Z,29.93
2018-01-24T09:17:31.033Z,25.00
2018-01-24T09:19:57.939Z,23.17
2018-01-24T09:22:24.122Z,27.07
2018-01-24T09:24:50.369Z,26.33
2018-01-24T09:27:16.537Z,26.43
2018-01-24T09:29:42.768Z,28.80
2018-01-24T09:32:09.083Z,26.43
2018-01-24T09:34:35.948Z,27.53
2018-01-24T09:37:02.181Z,26.87
2018-01-24T09:39:29.138Z,25.17
2018-01-24T09:41:56.071Z,24.13
2018-01-24T09:44:22.245Z,25.73
2018-01-24T09:46:48.451Z,20.93
2018-01-24T09:49:14.668Z,20.53
2018-01-24T09:51:40.811Z,23.83
2018-01-24T09:54:07.002Z,21.90
2018-01-24T09:56:33.915Z,21.47
2018-01-24T09:59:00.105Z,21.30
2018-01-24T10:01:26.316Z,20.33
2018-01-24T10:03:53.231Z,20.73
2018-01-24T10:06:19.392Z,23.90
2018-01-24T10:08:45.587Z,20.53
2018-01-24T10:11:11.766Z,21.33
2018-01-24T10:13:37.956Z,21.17
2018-01-24T10:16:04.147Z,21.97
2018-01-24T10:18:31.056Z,20.97
2018-01-24T10:20:57.236Z,18.93
2018-01-24T10:23:23.434Z,19.67
2018-01-24T10:25:50.359Z,20.13
2018-01-24T10:28:16.559Z,19.07
2018-01-24T10:30:42.796Z,18.67
2018-01-24T10:33:08.943Z,17.77
2018-01-24T10:35:35.116Z,19.20
2018-01-24T10:38:02.877Z,18.77
2018-01-24T10:40:29.316Z,17.57
2018-01-24T10:42:55.485Z,17.20
2018-01-24T10:45:22.408Z,17.27
2018-01-24T10:47:48.608Z,16.93
2018-01-24T10:50:14.771Z,14.47
2018-01-24T10:52:40.962Z,14.90
2018-01-24T10:55:07.178Z,14.13
2018-01-24T10:57:33.340Z,16.30
2018-01-24T10:59:59.584Z,11.60
2018-01-24T11:02:27.055Z,10.50
2018-01-24T11:04:53.240Z,9.63
2018-01-24T11:07:19.480Z,9.87
2018-01-24T11:09:45.639Z,9.77
2018-01-24T11:12:11.790Z,8.27
2018-01-24T11:14:38.076Z,8.30
2018-01-24T11:17:04.275Z,7.70
2018-01-24T11:19:31.181Z,8.10
2018-01-24T11:21:57.396Z,8.03
2018-01-24T11:24:24.299Z,8.70
2018-01-24T11:26:50.481Z,8.53
2018-01-24T11:29:16.673Z,8.87
2018-01-24T11:31:42.820Z,8.50
2018-01-24T11:34:09.748Z,8.40
2018-01-24T11:36:35.964Z,7.80
2018-01-24T11:39:02.234Z,9.37
2018-01-24T11:41:28.447Z,7.83
2018-01-24T11:43:54.694Z,7.53
2018-01-24T11:46:21.648Z,7.20
2018-01-24T11:48:47.829Z,7.80
2018-01-24T11:51:14.044Z,7.60
2018-01-24T11:53:40.999Z,7.00
2018-01-24T11:56:07.233Z,6.80
2018-01-24T11:58:34.180Z,5.23
2018-01-24T12:01:01.114Z,6.17
2018-01-24T12:03:28.035Z,5.17
2018-01-24T12:05:54.239Z,7.00
2018-01-24T12:08:20.466Z,5.00
2018-01-24T12:10:46.625Z,4.30
2018-01-24T12:13:12.814Z,5.23
2018-01-24T12:15:38.987Z,5.80
2018-01-24T12:18:05.273Z,4.50
2018-01-24T12:20:31.505Z,6.40
2018-01-24T12:22:58.407Z,3.73
2018-01-24T12:25:26.116Z,3.50
2018-01-24T12:27:53.788Z,3.30
2018-01-24T12:30:19.972Z,3.27
2018-01-24T12:32:46.121Z,3.27
2018-01-24T12:35:12.284Z,3.43
2018-01-24T12:37:39.202Z,3.37
2018-01-24T12:40:05.477Z,9.33
2018-01-24T12:42:31.794Z,4.40
2018-01-24T12:44:57.951Z,3.67
2018-01-24T12:47:24.884Z,3.03
2018-01-24T12:49:51.101Z,2.60
2018-01-24T12:52:17.278Z,2.90
2018-01-24T12:54:44.189Z,2.30
2018-01-24T12:57:10.415Z,2.90
2018-01-24T12:59:36.588Z,3.40
2018-01-24T13:02:03.560Z,2.33
2018-01-24T13:04:29.820Z,2.40
2018-01-24T13:06:56.028Z,2.50
2018-01-24T13:09:22.183Z,2.47
2018-01-24T13:11:48.403Z,2.13
2018-01-24T13:14:14.574Z,2.27
2018-01-24T13:16:41.495Z,2.90
2018-01-24T13:19:07.713Z,2.50
2018-01-24T13:21:33.904Z,2.37
2018-01-24T13:24:00.835Z,2.70
2018-01-24T13:26:27.791Z,2.43
2018-01-24T13:28:53.952Z,2.87
2018-01-24T13:31:21.579Z,2.90
2018-01-24T13:33:47.787Z,3.73
2018-01-24T13:36:14.028Z,3.77
2018-01-24T13:38:40.212Z,2.73
2018-01-24T13:41:07.239Z,2.87
2018-01-24T13:43:34.235Z,13.67
2018-01-24T13:46:01.175Z,5.47
2018-01-24T13:48:28.096Z,3.83
2018-01-24T13:50:54.272Z,3.77
2018-01-24T13:53:21.188Z,3.33
2018-01-24T13:55:47.347Z,3.60
2018-01-24T13:58:13.543Z,3.20
2018-01-24T14:00:39.754Z,3.00
2018-01-24T14:03:05.975Z,4.23
2018-01-24T14:05:33.902Z,4.80
2018-01-24T14:08:01.815Z,3.80
2018-01-24T14:10:29.799Z,2.97
2018-01-24T14:12:57.738Z,2.50
2018-01-24T14:15:25.671Z,4.90
2018-01-24T14:17:53.600Z,3.70
2018-01-24T14:20:21.506Z,3.33
2018-01-24T14:22:49.448Z,2.60
2018-01-24T14:25:17.382Z,6.13
2018-01-24T14:27:45.286Z,5.53
2018-01-24T14:30:13.215Z,2.23
2018-01-24T14:32:41.190Z,2.40
2018-01-24T14:35:09.092Z,2.30
2018-01-24T14:37:37.008Z,1.90
2018-01-24T14:40:04.929Z,2.10
2018-01-24T14:42:32.907Z,2.40
2018-01-24T14:45:00.914Z,1.93
2018-01-24T14:47:28.879Z,2.20
2018-01-24T14:49:56.806Z,3.67
2018-01-24T14:52:24.775Z,2.47
2018-01-24T14:54:52.735Z,1.80
2018-01-24T14:57:20.636Z,3.03
2018-01-24T14:59:48.571Z,2.30
2018-01-24T15:02:16.616Z,3.10
2018-01-24T15:04:44.581Z,1.93
2018-01-24T15:07:12.499Z,2.60
2018-01-24T15:09:40.460Z,2.07
2018-01-24T15:12:08.449Z,1.77
2018-01-24T15:14:36.451Z,1.70
2018-01-24T15:17:04.416Z,2.40
2018-01-24T15:19:32.376Z,1.80
2018-01-24T15:22:00.299Z,2.00
2018-01-24T15:24:28.231Z,2.77
2018-01-24T15:26:56.211Z,2.20
2018-01-24T15:29:24.114Z,1.93
2018-01-24T15:31:52.087Z,2.40
2018-01-24T15:34:20.003Z,2.67
2018-01-24T15:36:47.916Z,2.60
2018-01-24T15:39:15.866Z,3.10
2018-01-24T15:41:43.775Z,2.33
2018-01-24T15:44:11.773Z,1.93
2018-01-24T15:46:39.735Z,2.57
2018-01-24T15:49:07.654Z,2.20
2018-01-24T15:51:35.575Z,2.30
2018-01-24T15:54:03.560Z,2.37
2018-01-24T15:56:31.478Z,1.77
2018-01-24T15:58:59.391Z,2.07
2018-01-24T16:01:27.337Z,1.80
2018-01-24T16:03:55.236Z,1.80
2018-01-24T16:06:23.127Z,2.30
2018-01-24T16:08:51.059Z,5.80
2018-01-24T16:11:18.966Z,3.07
2018-01-24T16:13:46.868Z,2.00
2018-01-24T16:16:14.792Z,2.33
2018-01-24T16:18:42.761Z,2.47
2018-01-24T16:21:10.658Z,3.33
2018-01-24T16:23:40.672Z,2.50
2018-01-24T16:26:08.664Z,2.43
2018-01-24T16:28:36.547Z,2.17
2018-01-24T16:31:04.488Z,2.50
2018-01-24T16:33:32.409Z,3.53
2018-01-24T16:36:00.332Z,2.90
2018-01-24T16:38:28.312Z,2.57
2018-01-24T16:40:56.317Z,5.93
2018-01-24T16:43:24.242Z,2.10
2018-01-24T16:45:52.247Z,3.60
2018-01-24T16:48:20.319Z,3.63
2018-01-24T16:50:48.327Z,2.77
2018-01-24T16:53:16.260Z,3.00
2018-01-24T16:55:44.196Z,3.67
2018-01-24T16:58:12.103Z,2.90
2018-01-24T17:00:40.051Z,3.47
2018-01-24T17:03:07.967Z,2.43
2018-01-24T17:05:35.875Z,3.27
2018-01-24T17:08:03.775Z,3.30
2018-01-24T17:10:31.680Z,15.10
2018-01-24T17:12:59.592Z,6.67
2018-01-24T17:15:27.537Z,4.63
2018-01-24T17:17:55.449Z,5.73
2018-01-24T17:20:23.385Z,5.67
2018-01-24T17:22:51.377Z,4.33
2018-01-24T17:25:19.295Z,3.07
2018-01-24T17:27:47.199Z,2.90
2018-01-24T17:30:15.108Z,4.37
2018-01-24T17:32:43.027Z,4.10
2018-01-24T17:35:10.920Z,2.63
2018-01-24T17:40:37.445Z,3.17
2018-01-24T17:43:05.431Z,3.20
2018-01-24T17:45:33.413Z,2.33
2018-01-24T17:48:01.403Z,2.63
2018-01-24T17:50:29.335Z,1.97
2018-01-24T17:52:57.222Z,7.00
2018-01-24T17:55:25.208Z,2.33
2018-01-24T17:57:53.118Z,4.40
2018-01-24T18:00:21.019Z,2.27
2018-01-24T18:02:48.973Z,2.57
2018-01-24T18:05:16.887Z,2.90
2018-01-24T18:07:44.923Z,2.00
2018-01-24T18:10:12.926Z,2.30
2018-01-24T18:12:40.830Z,1.80
2018-01-24T18:15:08.730Z,3.30
2018-01-24T18:17:36.920Z,3.00
2018-01-24T18:20:04.849Z,2.90
2018-01-24T18:22:32.770Z,2.03
2018-01-24T18:25:00.731Z,6.33
2018-01-24T18:27:28.645Z,3.80
2018-01-24T18:29:56.579Z,2.80
2018-01-24T18:32:24.516Z,2.50
2018-01-24T18:34:52.463Z,2.73
2018-01-24T18:37:20.371Z,3.10
2018-01-24T18:39:48.334Z,2.53
2018-01-24T18:42:16.264Z,2.30
2018-01-24T18:44:44.218Z,2.50
2018-01-24T18:47:12.180Z,2.40
2018-01-24T18:49:40.167Z,2.90
2018-01-24T18:52:08.167Z,2.30
2018-01-24T18:54:36.123Z,3.43
2018-01-24T18:57:04.082Z,2.50
2018-01-24T18:59:32.044Z,2.83
2018-01-24T19:01:59.982Z,2.40
2018-01-24T19:04:27.895Z,2.90
2018-01-24T19:06:55.842Z,2.40
2018-01-24T19:09:23.791Z,2.30
2018-01-24T19:11:51.698Z,2.57
2018-01-24T19:14:19.642Z,2.10
2018-01-24T19:16:47.655Z,3.10
2018-01-24T19:19:15.539Z,2.47
2018-01-24T19:21:43.431Z,1.80
2018-01-24T19:24:11.379Z,2.10
2018-01-24T19:26:39.317Z,1.90
2018-01-24T19:29:07.221Z,2.20
2018-01-24T19:31:35.163Z,1.90
2018-01-24T19:34:03.055Z,2.57
2018-01-24T19:36:30.959Z,1.90
2018-01-24T19:38:58.903Z,2.30
2018-01-24T19:41:26.819Z,1.70
2018-01-24T19:43:54.715Z,1.80
2018-01-24T19:46:22.654Z,1.80
2018-01-24T19:48:50.607Z,3.33
2018-01-24T19:51:18.579Z,2.00
2018-01-24T19:53:46.699Z,1.90
2018-01-24T19:56:14.603Z,3.23
2018-01-24T19:58:42.520Z,2.00
2018-01-24T20:01:10.437Z,2.67
2018-01-24T20:03:38.351Z,3.27
2018-01-24T20:06:06.278Z,3.07
2018-01-24T20:08:34.243Z,2.60
2018-01-24T20:11:02.195Z,1.87
2018-01-24T20:13:30.166Z,2.17
2018-01-24T20:15:58.133Z,2.30
2018-01-24T20:18:26.063Z,2.37
2018-01-24T20:20:53.977Z,2.87
2018-01-24T20:23:22.222Z,2.27
2018-01-24T20:25:50.138Z,2.40
2018-01-24T20:28:18.059Z,4.43
2018-01-24T20:30:46.111Z,2.10
2018-01-24T20:33:14.043Z,2.03
2018-01-24T20:35:41.982Z,2.17
2018-01-24T20:38:09.949Z,1.80
2018-01-24T20:40:37.859Z,2.00
2018-01-24T20:43:05.785Z,2.20
2018-01-24T20:45:33.722Z,4.07
2018-01-24T20:48:01.723Z,7.17
2018-01-24T20:50:29.659Z,2.27
2018-01-24T20:52:57.943Z,2.90
2018-01-24T20:55:25.929Z,1.57
2018-01-24T20:57:53.909Z,2.70
2018-01-24T21:00:21.913Z,1.73
2018-01-24T21:02:49.830Z,2.70
2018-01-24T21:05:17.729Z,1.60
2018-01-24T21:07:45.675Z,1.40
2018-01-24T21:10:13.639Z,1.50
2018-01-24T21:12:41.570Z,2.10
2018-01-24T21:15:09.559Z,1.57
2018-01-24T21:17:37.508Z,1.47
2018-01-24T21:20:05.423Z,1.67
2018-01-24T21:22:33.376Z,1.50
2018-01-24T21:25:01.316Z,1.83
2018-01-24T21:27:29.283Z,2.80
2018-01-24T21:30:03.443Z,2.00
2018-01-24T21:32:37.627Z,1.40
2018-01-24T21:35:11.763Z,1.73
2018-01-24T21:37:39.707Z,1.60
2018-01-24T21:40:07.615Z,3.77
2018-01-24T21:42:35.543Z,1.80
2018-01-24T21:45:03.541Z,1.60
2018-01-24T21:47:31.466Z,1.70
2018-01-24T21:49:59.424Z,1.17
2018-01-24T21:52:27.375Z,1.60
2018-01-24T21:54:55.346Z,1.90
2018-01-24T21:57:23.567Z,1.80
2018-01-24T21:59:51.504Z,1.77
2018-01-24T22:02:19.440Z,1.83
2018-01-24T22:04:47.387Z,1.63
2018-01-24T22:07:15.311Z,8.43
2018-01-24T22:09:43.259Z,2.30
2018-01-24T22:12:11.196Z,3.20
2018-01-24T22:14:39.121Z,3.03
2018-01-24T22:17:07.039Z,2.90
2018-01-24T22:19:35.095Z,2.70
2018-01-24T22:22:03.121Z,2.07
2018-01-24T22:24:31.203Z,2.50
2018-01-24T22:26:59.286Z,2.50
2018-01-24T22:29:27.323Z,2.37
2018-01-24T22:31:55.372Z,2.83
2018-01-24T22:34:23.399Z,1.87
2018-01-24T22:36:51.476Z,2.53
2018-01-24T22:39:19.522Z,1.00
2018-01-24T22:41:47.581Z,1.10
2018-01-24T22:44:15.658Z,2.00
2018-01-24T22:46:43.770Z,1.20
2018-01-24T22:49:11.827Z,1.10
2018-01-24T22:51:39.739Z,2.00
2018-01-24T22:54:07.696Z,1.20
2018-01-24T22:56:35.806Z,1.00
2018-01-24T22:59:03.916Z,2.00
2018-01-24T23:01:32.024Z,1.00
2018-01-24T23:03:59.993Z,1.73
2018-01-24T23:06:27.930Z,1.03
2018-01-24T23:08:55.866Z,0.80
2018-01-24T23:11:23.828Z,0.50
2018-01-24T23:13:51.769Z,0.70
2018-01-24T23:16:19.691Z,0.70
2018-01-24T23:18:47.696Z,0.70
2018-01-24T23:21:15.639Z,0.60
2018-01-24T23:23:43.566Z,0.60
2018-01-24T23:26:11.548Z,0.70
2018-01-24T23:28:39.480Z,0.50
2018-01-24T23:31:07.395Z,4.20
2018-01-24T23:33:35.367Z,0.80
2018-01-24T23:36:03.289Z,0.83
2018-01-24T23:38:31.215Z,0.80
2018-01-24T23:40:59.164Z,0.80
2018-01-24T23:43:27.085Z,1.50
2018-01-24T23:45:55.024Z,1.10
2018-01-24T23:48:22.973Z,0.93
2018-01-24T23:50:50.884Z,3.83
2018-01-24T23:53:18.798Z,0.80
2018-01-24T23:55:46.771Z,1.00
2018-01-24T23:58:14.772Z,1.37
